Harrods Creek, Kentucky
Current Conditions -  °F | °C
As of 5:12 AM on Thursday 27 Nov 2014 (Local Time) from KLOU Reporting Station
Broken Clouds Broken Clouds  
Wind Chill: 23°   Ceiling: 11000
Heat Index: 31°   Visibility: 9mi
Dew Point: 26°   Wind: 8mph
Humidity: 82%   Direction: 330°NNW
Pressure: 30.19"   Gusts: NA
Location:  38.33°N, 85.63°W
Report Text: KLOU 271012Z AUTO 33007KT 9SM FEW010 SCT014 BKN110 M01/M03 A3019 RMK AO2 T10061033
Loading
Personal Weather Stations






























Interactive Weather Map New forecast layout! Learn more

10-Day Weather Forecast

Advertisements
Track Severe Weather on mobile